createdAt,value
2017-11-11T00:00:30.125Z,0
2017-11-11T00:01:40.297Z,0
2017-11-11T00:02:50.775Z,0
2017-11-11T00:04:01.273Z,0
2017-11-11T00:05:11.726Z,0
2017-11-11T00:06:22.195Z,0
2017-11-11T00:07:32.639Z,0
2017-11-11T00:08:43.134Z,0
2017-11-11T00:09:53.593Z,0
2017-11-11T00:11:04.070Z,0
2017-11-11T00:12:14.544Z,0
2017-11-11T00:13:24.652Z,0
2017-11-11T00:14:34.789Z,0
2017-11-11T00:15:44.944Z,0
2017-11-11T00:16:56.432Z,0
2017-11-11T00:18:06.918Z,0
2017-11-11T00:19:17.366Z,0
2017-11-11T00:20:27.852Z,0
2017-11-11T00:21:38.298Z,0
2017-11-11T00:22:48.416Z,0
2017-11-11T00:23:58.900Z,0
2017-11-11T00:25:09.363Z,0
2017-11-11T00:26:19.931Z,0
2017-11-11T00:27:30.056Z,0
2017-11-11T00:28:40.533Z,0
2017-11-11T00:29:51.041Z,0
2017-11-11T00:31:01.312Z,0
2017-11-11T00:32:11.754Z,0
2017-11-11T00:33:22.260Z,0
2017-11-11T00:34:32.332Z,0
2017-11-11T00:35:42.812Z,0
2017-11-11T00:36:53.268Z,0
2017-11-11T00:38:03.713Z,0
2017-11-11T00:39:14.038Z,0
2017-11-11T00:40:24.521Z,0
2017-11-11T00:41:34.641Z,0
2017-11-11T00:42:44.760Z,0
2017-11-11T00:43:55.311Z,0
2017-11-11T00:45:05.996Z,0
2017-11-11T00:46:16.118Z,0
2017-11-11T00:47:26.575Z,0
2017-11-11T00:48:36.698Z,0
2017-11-11T00:49:47.180Z,0
2017-11-11T00:50:57.291Z,0
2017-11-11T00:52:07.802Z,0
2017-11-11T00:53:17.950Z,0
2017-11-11T00:54:28.422Z,0
2017-11-11T00:55:38.882Z,0
2017-11-11T00:56:49.352Z,0
2017-11-11T00:57:59.844Z,0
2017-11-11T00:59:10.330Z,0
2017-11-11T01:00:20.461Z,0
2017-11-11T01:01:30.929Z,0
2017-11-11T01:02:40.953Z,0
2017-11-11T01:03:51.619Z,0
2017-11-11T01:05:01.779Z,0
2017-11-11T01:06:12.477Z,0
2017-11-11T01:07:22.956Z,0
2017-11-11T01:08:33.446Z,0
2017-11-11T01:09:44.004Z,0
2017-11-11T01:10:54.445Z,0
2017-11-11T01:12:04.961Z,0
2017-11-11T01:13:15.083Z,0
2017-11-11T01:14:25.524Z,0
2017-11-11T01:15:36.033Z,0
2017-11-11T01:16:45.843Z,0
2017-11-11T01:17:56.288Z,0
2017-11-11T01:19:06.424Z,0
2017-11-11T01:20:16.873Z,0
2017-11-11T01:21:28.446Z,0
2017-11-11T01:22:39.169Z,0
2017-11-11T01:23:49.775Z,0
2017-11-11T01:25:00.342Z,0
2017-11-11T01:26:10.174Z,0
2017-11-11T01:27:20.505Z,0
2017-11-11T01:28:30.993Z,0
2017-11-11T01:29:41.472Z,0
2017-11-11T01:30:51.615Z,0
2017-11-11T01:32:01.789Z,0
2017-11-11T01:33:12.289Z,0
2017-11-11T01:34:22.779Z,0
2017-11-11T01:35:33.263Z,0
2017-11-11T01:36:43.708Z,0
2017-11-11T01:37:53.818Z,0
2017-11-11T01:39:04.335Z,0
2017-11-11T01:40:14.835Z,0
2017-11-11T01:41:24.987Z,0
2017-11-11T01:42:35.490Z,0
2017-11-11T01:43:45.963Z,0
2017-11-11T01:44:56.126Z,0
2017-11-11T01:46:06.580Z,0
2017-11-11T01:47:17.078Z,0
2017-11-11T01:48:27.635Z,0
2017-11-11T01:49:38.126Z,0
2017-11-11T01:50:48.575Z,0
2017-11-11T01:51:59.028Z,0
2017-11-11T01:53:09.540Z,0
2017-11-11T01:54:19.789Z,0
2017-11-11T01:55:30.333Z,0
2017-11-11T01:56:40.460Z,0
2017-11-11T01:57:51.035Z,0
2017-11-11T01:59:01.457Z,0
2017-11-11T02:00:11.606Z,0
2017-11-11T02:01:21.738Z,0
2017-11-11T02:02:32.215Z,0
2017-11-11T02:03:42.657Z,0
2017-11-11T02:04:53.146Z,0
2017-11-11T02:06:03.644Z,0
2017-11-11T02:07:14.103Z,0
2017-11-11T02:08:24.571Z,0
2017-11-11T02:09:34.703Z,0
2017-11-11T02:10:45.181Z,0
2017-11-11T02:11:55.284Z,0
2017-11-11T02:13:05.429Z,0
2017-11-11T02:14:15.880Z,0
2017-11-11T02:15:26.326Z,0
2017-11-11T02:16:36.449Z,0
2017-11-11T02:17:46.877Z,0
2017-11-11T02:18:57.362Z,0
2017-11-11T02:20:07.833Z,0
2017-11-11T02:21:18.337Z,0
2017-11-11T02:22:29.054Z,0
2017-11-11T02:23:38.773Z,0
2017-11-11T02:24:49.280Z,0
2017-11-11T02:25:59.728Z,0
2017-11-11T02:27:10.076Z,0
2017-11-11T02:28:20.566Z,0
2017-11-11T02:29:30.712Z,0
2017-11-11T02:30:40.839Z,0
2017-11-11T02:31:50.746Z,0
2017-11-11T02:33:00.909Z,0
2017-11-11T02:34:11.383Z,0
2017-11-11T02:35:21.885Z,0
2017-11-11T02:36:32.341Z,0
2017-11-11T02:37:42.877Z,0
2017-11-11T02:38:53.593Z,0
2017-11-11T02:40:03.751Z,0
2017-11-11T02:41:13.893Z,0
2017-11-11T02:42:23.704Z,0
2017-11-11T02:43:33.728Z,0
2017-11-11T02:44:44.214Z,0
2017-11-11T02:45:54.276Z,0
2017-11-11T02:47:04.076Z,0
2017-11-11T02:48:14.362Z,0
2017-11-11T02:49:24.821Z,0
2017-11-11T02:50:34.617Z,0
2017-11-11T02:51:45.142Z,0
2017-11-11T02:52:55.750Z,0
2017-11-11T02:54:06.206Z,0
2017-11-11T02:55:16.680Z,0
2017-11-11T02:56:26.483Z,0
2017-11-11T02:57:36.989Z,0
2017-11-11T02:58:47.209Z,0
2017-11-11T02:59:57.730Z,0
2017-11-11T03:01:07.850Z,0
2017-11-11T03:02:17.892Z,0
2017-11-11T03:03:28.030Z,0
2017-11-11T03:04:38.519Z,0
2017-11-11T03:05:48.972Z,0
2017-11-11T03:06:59.409Z,0
2017-11-11T03:08:09.539Z,0
2017-11-11T03:09:19.977Z,0
2017-11-11T03:10:30.017Z,0
2017-11-11T03:11:41.456Z,0
2017-11-11T03:12:51.162Z,0
2017-11-11T03:14:01.613Z,0
2017-11-11T03:15:12.096Z,0
2017-11-11T03:16:22.129Z,0
2017-11-11T03:17:32.215Z,0
2017-11-11T03:18:42.221Z,0
2017-11-11T03:19:52.738Z,0
2017-11-11T03:21:02.544Z,0
2017-11-11T03:22:12.984Z,0
2017-11-11T03:23:23.495Z,0
2017-11-11T03:24:33.942Z,0
2017-11-11T03:25:44.406Z,0
2017-11-11T03:26:54.870Z,0
2017-11-11T03:28:05.307Z,0
2017-11-11T03:29:15.444Z,0
2017-11-11T03:30:25.916Z,0
2017-11-11T03:31:36.429Z,0
2017-11-11T03:32:46.883Z,0
2017-11-11T03:33:56.919Z,0
2017-11-11T03:35:07.057Z,0
2017-11-11T03:36:17.532Z,0
2017-11-11T03:37:27.685Z,0
2017-11-11T03:38:37.702Z,0
2017-11-11T03:39:48.208Z,0
2017-11-11T03:40:58.753Z,0
2017-11-11T03:42:08.888Z,0
2017-11-11T03:43:18.908Z,0
2017-11-11T03:44:29.372Z,0
2017-11-11T03:45:39.593Z,0
2017-11-11T03:46:49.790Z,0
2017-11-11T03:47:59.809Z,0
2017-11-11T03:49:10.288Z,0
2017-11-11T03:50:20.511Z,0
2017-11-11T03:51:30.975Z,0
2017-11-11T03:52:41.092Z,0
2017-11-11T03:53:51.544Z,0
2017-11-11T03:55:01.657Z,0
2017-11-11T03:56:12.318Z,0
2017-11-11T03:57:22.789Z,0
2017-11-11T03:58:33.462Z,0
2017-11-11T03:59:43.938Z,0
2017-11-11T04:00:54.399Z,0
2017-11-11T04:02:04.879Z,0
2017-11-11T04:03:15.317Z,0
2017-11-11T04:04:25.434Z,0
2017-11-11T04:05:35.974Z,0
2017-11-11T04:06:46.114Z,0
2017-11-11T04:07:56.821Z,0
2017-11-11T04:09:07.300Z,0
2017-11-11T04:10:17.856Z,0
2017-11-11T04:11:27.551Z,0
2017-11-11T04:12:38.003Z,0
2017-11-11T04:13:48.455Z,0
2017-11-11T04:14:58.615Z,0
2017-11-11T04:16:08.729Z,0
2017-11-11T04:17:18.884Z,0
2017-11-11T04:18:29.385Z,0
2017-11-11T04:19:39.845Z,0
2017-11-11T04:20:50.375Z,0
2017-11-11T04:22:00.841Z,0
2017-11-11T04:23:10.962Z,0
2017-11-11T04:24:20.646Z,0
2017-11-11T04:25:31.112Z,0
2017-11-11T04:26:41.252Z,0
2017-11-11T04:27:51.359Z,0
2017-11-11T04:29:01.813Z,0
2017-11-11T04:30:12.279Z,0
2017-11-11T04:31:22.086Z,0
2017-11-11T04:32:32.206Z,0
2017-11-11T04:33:42.001Z,0
2017-11-11T04:34:52.546Z,0
2017-11-11T04:36:03.087Z,0
2017-11-11T04:37:13.591Z,0
2017-11-11T04:38:23.724Z,0
2017-11-11T04:39:34.234Z,0
2017-11-11T04:40:44.697Z,0
2017-11-11T04:41:54.493Z,0
2017-11-11T04:43:04.968Z,0
2017-11-11T04:44:14.707Z,0
2017-11-11T04:45:25.138Z,0
2017-11-11T04:46:35.305Z,0
2017-11-11T04:47:45.758Z,0
2017-11-11T04:48:56.218Z,0
2017-11-11T04:50:06.223Z,0
2017-11-11T04:51:16.882Z,0
2017-11-11T04:52:27.255Z,0
2017-11-11T04:53:37.679Z,0
2017-11-11T04:54:47.836Z,0
2017-11-11T04:55:58.012Z,0
2017-11-11T04:57:08.539Z,0
2017-11-11T04:58:19.233Z,0
2017-11-11T04:59:30.021Z,0
2017-11-11T05:00:40.704Z,0
2017-11-11T05:01:50.189Z,0
2017-11-11T05:03:00.638Z,0
2017-11-11T05:04:11.145Z,0
2017-11-11T05:05:21.590Z,0
2017-11-11T05:06:32.302Z,0
2017-11-11T05:07:42.729Z,0
2017-11-11T05:08:52.871Z,0
2017-11-11T05:10:03.459Z,0
2017-11-11T05:11:13.948Z,0
2017-11-11T05:12:24.420Z,0
2017-11-11T05:13:34.851Z,0
2017-11-11T05:14:44.836Z,0
2017-11-11T05:15:54.974Z,0
2017-11-11T05:17:05.400Z,0
2017-11-11T05:18:15.870Z,0
2017-11-11T05:19:26.332Z,0
2017-11-11T05:20:36.497Z,0
2017-11-11T05:21:46.209Z,0
2017-11-11T05:22:56.649Z,0
2017-11-11T05:24:07.081Z,0
2017-11-11T05:25:16.877Z,0
2017-11-11T05:26:27.384Z,0
2017-11-11T05:27:37.070Z,0
2017-11-11T05:28:47.539Z,0
2017-11-11T05:29:58.013Z,0
2017-11-11T05:31:07.802Z,0
2017-11-11T05:32:17.622Z,0
2017-11-11T05:33:28.067Z,0
2017-11-11T05:34:38.183Z,0
2017-11-11T05:35:48.304Z,0
2017-11-11T05:36:58.744Z,0
2017-11-11T05:38:08.856Z,0
2017-11-11T05:39:18.994Z,0
2017-11-11T05:40:29.128Z,0
2017-11-11T05:41:39.599Z,0
2017-11-11T05:42:49.722Z,0
2017-11-11T05:44:00.425Z,0
2017-11-11T05:45:10.588Z,0
2017-11-11T05:46:20.728Z,0
2017-11-11T05:47:30.968Z,0
2017-11-11T05:48:41.111Z,0
2017-11-11T05:49:51.264Z,0
2017-11-11T05:51:01.745Z,0
2017-11-11T05:52:12.197Z,0
2017-11-11T05:53:22.675Z,4
2017-11-11T05:54:33.144Z,0
2017-11-11T05:55:43.660Z,0
2017-11-11T05:56:53.951Z,4
2017-11-11T05:58:04.484Z,4
2017-11-11T05:59:14.626Z,4
2017-11-11T06:00:24.733Z,4
2017-11-11T06:01:34.853Z,4
2017-11-11T06:02:45.298Z,8
2017-11-11T06:03:55.752Z,8
2017-11-11T06:05:05.547Z,12
2017-11-11T06:06:16.032Z,12
2017-11-11T06:07:26.278Z,16
2017-11-11T06:08:37.042Z,20
2017-11-11T06:09:47.231Z,28
2017-11-11T06:10:57.799Z,32
2017-11-11T06:12:08.301Z,36
2017-11-11T06:13:18.846Z,44
2017-11-11T06:14:28.987Z,52
2017-11-11T06:15:39.175Z,60
2017-11-11T06:16:49.675Z,72
2017-11-11T06:17:59.604Z,76
2017-11-11T06:19:09.553Z,88
2017-11-11T06:20:20.054Z,104
2017-11-11T06:21:30.691Z,116
2017-11-11T06:22:40.889Z,132
2017-11-11T06:23:51.414Z,140
2017-11-11T06:25:01.960Z,148
2017-11-11T06:26:12.532Z,144
2017-11-11T06:27:23.079Z,144
2017-11-11T06:28:33.585Z,148
2017-11-11T06:29:43.760Z,192
2017-11-11T06:30:53.987Z,232
2017-11-11T06:32:04.519Z,272
2017-11-11T06:33:14.596Z,324
2017-11-11T06:34:24.794Z,352
2017-11-11T06:35:34.998Z,356
2017-11-11T06:36:45.785Z,368
2017-11-11T06:37:55.874Z,388
2017-11-11T06:39:06.379Z,416
2017-11-11T06:40:16.918Z,444
2017-11-11T06:41:27.486Z,452
2017-11-11T06:42:37.655Z,416
2017-11-11T06:43:47.399Z,384
2017-11-11T06:44:57.606Z,348
2017-11-11T06:46:08.188Z,336
2017-11-11T06:47:18.351Z,368
2017-11-11T06:48:28.939Z,464
2017-11-11T06:49:39.521Z,608
2017-11-11T06:50:49.384Z,700
2017-11-11T06:51:59.945Z,768
2017-11-11T06:53:10.140Z,820
2017-11-11T06:54:20.665Z,848
2017-11-11T06:55:31.209Z,928
2017-11-11T06:56:41.720Z,1048
2017-11-11T06:57:51.996Z,1112
2017-11-11T06:59:02.531Z,1100
2017-11-11T07:00:13.035Z,1112
2017-11-11T07:01:23.583Z,1148
2017-11-11T07:02:34.274Z,1196
2017-11-11T07:03:44.471Z,1244
2017-11-11T07:04:54.374Z,1252
2017-11-11T07:06:04.879Z,1280
2017-11-11T07:07:15.041Z,1356
2017-11-11T07:08:24.888Z,1440
2017-11-11T07:09:35.474Z,1556
2017-11-11T07:10:45.973Z,1572
2017-11-11T07:11:56.948Z,1460
2017-11-11T07:13:07.515Z,1164
2017-11-11T07:14:19.076Z,1192
2017-11-11T07:15:29.335Z,1380
2017-11-11T07:16:39.842Z,1676
2017-11-11T07:17:50.379Z,1904
2017-11-11T07:19:00.935Z,2000
2017-11-11T07:20:11.461Z,1956
2017-11-11T07:21:22.002Z,1860
2017-11-11T07:22:32.110Z,1828
2017-11-11T07:23:42.619Z,1924
2017-11-11T07:24:53.156Z,2100
2017-11-11T07:26:03.680Z,2264
2017-11-11T07:27:13.975Z,2256
2017-11-11T07:28:24.507Z,2092
2017-11-11T07:29:35.114Z,2044
2017-11-11T07:30:45.286Z,1808
2017-11-11T07:31:55.835Z,1884
2017-11-11T07:33:06.345Z,1928
2017-11-11T07:34:16.941Z,2068
2017-11-11T07:35:27.146Z,2920
2017-11-11T07:36:37.336Z,2276
2017-11-11T07:37:47.189Z,2312
2017-11-11T07:38:57.834Z,2504
2017-11-11T07:40:08.508Z,3004
2017-11-11T07:41:19.042Z,5692
2017-11-11T07:42:29.369Z,3504
2017-11-11T07:43:39.950Z,7576
2017-11-11T07:44:50.419Z,5472
2017-11-11T07:46:00.971Z,9080
2017-11-11T07:47:11.227Z,7864
2017-11-11T07:48:21.420Z,5068
2017-11-11T07:49:31.596Z,5248
2017-11-11T07:50:42.117Z,4928
2017-11-11T07:51:52.696Z,4432
2017-11-11T07:53:02.906Z,4220
2017-11-11T07:54:13.021Z,4184
2017-11-11T07:55:23.135Z,4296
2017-11-11T07:56:33.640Z,4388
2017-11-11T07:57:43.497Z,4392
2017-11-11T07:58:53.704Z,4416
2017-11-11T08:00:04.215Z,4432
2017-11-11T08:01:14.767Z,4376
2017-11-11T08:02:25.327Z,4060
2017-11-11T08:03:35.865Z,3352
2017-11-11T08:04:46.038Z,3248
2017-11-11T08:05:56.222Z,3460
2017-11-11T08:07:06.739Z,3436
2017-11-11T08:08:17.340Z,3720
2017-11-11T08:09:27.885Z,4208
2017-11-11T08:10:37.995Z,4668
2017-11-11T08:11:48.505Z,4968
2017-11-11T08:12:59.032Z,4784
2017-11-11T08:14:09.537Z,4452
2017-11-11T08:15:19.739Z,4384
2017-11-11T08:16:29.983Z,4528
2017-11-11T08:17:40.080Z,4668
2017-11-11T08:18:49.950Z,4904
2017-11-11T08:20:00.176Z,5100
2017-11-11T08:21:10.753Z,5088
2017-11-11T08:22:21.334Z,4592
2017-11-11T08:23:31.548Z,3696
2017-11-11T08:24:42.058Z,3112
2017-11-11T08:25:52.244Z,2900
2017-11-11T08:27:02.848Z,4212
2017-11-11T08:28:13.062Z,3976
2017-11-11T08:29:23.591Z,3608
2017-11-11T08:30:34.120Z,3768
2017-11-11T08:31:44.243Z,2180
2017-11-11T08:32:54.811Z,1624
2017-11-11T08:34:05.040Z,1748
2017-11-11T08:35:15.486Z,1976
2017-11-11T08:36:25.233Z,2876
2017-11-11T08:37:35.435Z,3376
2017-11-11T08:38:45.285Z,2848
2017-11-11T08:39:55.855Z,3900
2017-11-11T08:41:06.057Z,3688
2017-11-11T08:42:16.176Z,3992
2017-11-11T08:43:26.775Z,4320
2017-11-11T08:44:37.323Z,5140
2017-11-11T08:45:47.540Z,6736
2017-11-11T08:46:58.046Z,8292
2017-11-11T08:48:08.138Z,7576
2017-11-11T08:49:18.681Z,7972
2017-11-11T08:50:29.255Z,7964
2017-11-11T08:51:39.838Z,6320
2017-11-11T08:52:49.664Z,5168
2017-11-11T08:53:59.893Z,6576
2017-11-11T08:55:10.144Z,24064
2017-11-11T08:56:20.763Z,8100
2017-11-11T08:57:31.359Z,23648
2017-11-11T08:58:41.155Z,35072
2017-11-11T08:59:52.783Z,7932
2017-11-11T09:01:03.034Z,33152
2017-11-11T09:02:13.547Z,34528
2017-11-11T09:03:24.059Z,32384
2017-11-11T09:04:34.260Z,31968
2017-11-11T09:05:44.884Z,20000
2017-11-11T09:06:55.191Z,20352
2017-11-11T09:08:05.732Z,13528
2017-11-11T09:09:16.282Z,31488
2017-11-11T09:10:26.167Z,30272
2017-11-11T09:11:36.709Z,31296
2017-11-11T09:12:47.228Z,30784
2017-11-11T09:13:57.424Z,30432
2017-11-11T09:15:08.014Z,31040
2017-11-11T09:16:18.240Z,30656
2017-11-11T09:17:28.457Z,33760
2017-11-11T09:18:38.721Z,34272
2017-11-11T09:19:49.028Z,35552
2017-11-11T09:20:59.555Z,33920
2017-11-11T09:22:10.160Z,32672
2017-11-11T09:23:20.335Z,32448
2017-11-11T09:24:30.431Z,33440
2017-11-11T09:25:41.109Z,33440
2017-11-11T09:26:51.856Z,14976
2017-11-11T09:28:02.047Z,39168
2017-11-11T09:29:12.802Z,38848
2017-11-11T09:30:23.127Z,34592
2017-11-11T09:31:33.322Z,38880
2017-11-11T09:32:43.869Z,33408
2017-11-11T09:33:54.612Z,30016
2017-11-11T09:35:05.188Z,36064
2017-11-11T09:36:15.723Z,36416
2017-11-11T09:37:26.714Z,39232
2017-11-11T09:38:36.915Z,37728
2017-11-11T09:39:47.505Z,38016
2017-11-11T09:40:57.728Z,39424
2017-11-11T09:42:08.305Z,38720
2017-11-11T09:43:18.879Z,39744
2017-11-11T09:44:29.423Z,26144
2017-11-11T09:45:39.724Z,44096
2017-11-11T09:46:50.072Z,45632
2017-11-11T09:48:00.639Z,36064
2017-11-11T09:49:11.195Z,45792
2017-11-11T09:50:21.971Z,45664
2017-11-11T09:51:32.507Z,22368
2017-11-11T09:52:43.084Z,41728
2017-11-11T09:53:53.422Z,16672
2017-11-11T09:55:04.032Z,15520
2017-11-11T09:56:14.222Z,40896
2017-11-11T09:57:24.126Z,47584
2017-11-11T09:58:34.342Z,41440
2017-11-11T09:59:44.592Z,47072
2017-11-11T10:00:54.832Z,44544
2017-11-11T10:02:05.134Z,52352
2017-11-11T10:03:15.331Z,31136
2017-11-11T10:04:25.426Z,25792
2017-11-11T10:05:35.668Z,27200
2017-11-11T10:06:45.909Z,12108
2017-11-11T10:07:55.797Z,15936
2017-11-11T10:09:06.567Z,19264
2017-11-11T10:10:16.762Z,14720
2017-11-11T10:11:27.456Z,45216
2017-11-11T10:12:37.599Z,24992
2017-11-11T10:13:48.126Z,49120
2017-11-11T10:14:58.659Z,48672
2017-11-11T10:16:09.222Z,32832
2017-11-11T10:17:19.789Z,49280
2017-11-11T10:18:30.372Z,50656
2017-11-11T10:19:40.573Z,14016
2017-11-11T10:20:51.237Z,15232
2017-11-11T10:22:01.457Z,15296
2017-11-11T10:23:11.697Z,18720
2017-11-11T10:24:21.137Z,14976
2017-11-11T10:25:31.674Z,11440
2017-11-11T10:26:42.233Z,9988
2017-11-11T10:27:52.365Z,9704
2017-11-11T10:29:02.943Z,6364
2017-11-11T10:30:14.447Z,4800
2017-11-11T10:31:25.021Z,7332
2017-11-11T10:32:35.259Z,8568
2017-11-11T10:33:45.805Z,7156
2017-11-11T10:34:55.917Z,4516
2017-11-11T10:36:06.476Z,4280
2017-11-11T10:37:17.109Z,12012
2017-11-11T10:38:27.243Z,47744
2017-11-11T10:39:37.500Z,55328
2017-11-11T10:40:48.033Z,16256
2017-11-11T10:41:58.571Z,19328
2017-11-11T10:43:08.782Z,44352
2017-11-11T10:44:19.587Z,36832
2017-11-11T10:45:30.118Z,54336
2017-11-11T10:46:40.763Z,52384
2017-11-11T10:47:50.977Z,46400
2017-11-11T10:49:01.227Z,51232
2017-11-11T10:50:11.440Z,35712
2017-11-11T10:51:21.719Z,40032
2017-11-11T10:52:32.258Z,52704
2017-11-11T10:53:42.816Z,28448
2017-11-11T10:54:53.536Z,52096
2017-11-11T10:56:04.054Z,58336
2017-11-11T10:57:14.715Z,41472
2017-11-11T10:58:25.277Z,10428
2017-11-11T10:59:35.850Z,28608
2017-11-11T11:00:46.216Z,22624
2017-11-11T11:01:56.083Z,14944
2017-11-11T11:03:06.624Z,9184
2017-11-11T11:04:16.143Z,6532
2017-11-11T11:05:26.434Z,5388
2017-11-11T11:06:36.634Z,4688
2017-11-11T11:07:46.143Z,5300
2017-11-11T11:08:57.306Z,5696
2017-11-11T11:10:07.561Z,6376
2017-11-11T11:11:17.956Z,5940
2017-11-11T11:12:28.179Z,5900
2017-11-11T11:13:38.408Z,5768
2017-11-11T11:14:49.081Z,7084
2017-11-11T11:15:59.190Z,7404
2017-11-11T11:17:09.754Z,8264
2017-11-11T11:18:20.317Z,9444
2017-11-11T11:19:30.867Z,10124
2017-11-11T11:20:41.421Z,10848
2017-11-11T11:21:51.695Z,11884
2017-11-11T11:23:02.297Z,12860
2017-11-11T11:24:12.832Z,12612
2017-11-11T11:25:23.813Z,12728
2017-11-11T11:26:34.438Z,11880
2017-11-11T11:27:44.396Z,10928
2017-11-11T11:28:54.493Z,9988
2017-11-11T11:30:04.776Z,10304
2017-11-11T11:31:14.251Z,9308
2017-11-11T11:32:24.126Z,9640
2017-11-11T11:33:34.684Z,18496
2017-11-11T11:34:44.793Z,10080
2017-11-11T11:35:55.324Z,8024
2017-11-11T11:37:06.006Z,7264
2017-11-11T11:38:16.539Z,7872
2017-11-11T11:39:27.105Z,8004
2017-11-11T11:40:37.237Z,7848
2017-11-11T11:41:47.424Z,6672
2017-11-11T11:42:57.636Z,5796
2017-11-11T11:44:08.176Z,5720
2017-11-11T11:45:19.186Z,8480
2017-11-11T11:46:29.099Z,10752
2017-11-11T11:47:39.971Z,11972
2017-11-11T11:48:50.579Z,10844
2017-11-11T11:50:01.537Z,8568
2017-11-11T11:51:11.736Z,5704
2017-11-11T11:52:21.653Z,4316
2017-11-11T11:53:32.053Z,3704
2017-11-11T11:54:42.581Z,3784
2017-11-11T11:55:53.370Z,4068
2017-11-11T11:57:03.898Z,4400
2017-11-11T11:58:14.668Z,4612
2017-11-11T11:59:24.585Z,4212
2017-11-11T12:00:34.798Z,3508
2017-11-11T12:01:45.455Z,2940
2017-11-11T12:02:55.992Z,2728
2017-11-11T12:04:06.204Z,3596
2017-11-11T12:05:16.738Z,6816
2017-11-11T12:06:26.845Z,9180
2017-11-11T12:07:37.196Z,10000
2017-11-11T12:09:19.665Z,8076
2017-11-11T12:10:30.386Z,4476
2017-11-11T12:11:40.976Z,3376
2017-11-11T12:12:51.596Z,2548
2017-11-11T12:14:01.834Z,1496
2017-11-11T12:15:12.382Z,1256
2017-11-11T12:16:22.954Z,1104
2017-11-11T12:17:33.168Z,980
2017-11-11T12:18:43.755Z,776
2017-11-11T12:19:54.009Z,664
2017-11-11T12:21:03.888Z,600
2017-11-11T12:22:14.104Z,632
2017-11-11T12:23:24.313Z,696
2017-11-11T12:24:34.907Z,744
2017-11-11T12:25:45.514Z,692
2017-11-11T12:26:56.105Z,600
2017-11-11T12:28:06.730Z,524
2017-11-11T12:29:16.638Z,556
2017-11-11T12:30:26.887Z,804
2017-11-11T12:31:37.518Z,884
2017-11-11T12:32:47.780Z,1424
2017-11-11T12:33:58.346Z,2920
2017-11-11T12:35:08.685Z,4940
2017-11-11T12:36:19.271Z,5608
2017-11-11T12:37:30.164Z,5360
2017-11-11T12:38:40.680Z,4912
2017-11-11T12:39:51.236Z,4556
2017-11-11T12:41:01.446Z,4368
2017-11-11T12:42:12.043Z,4240
2017-11-11T12:43:22.575Z,4360
2017-11-11T12:44:33.152Z,4852
2017-11-11T12:45:43.261Z,5584
2017-11-11T12:46:53.801Z,5924
2017-11-11T12:48:04.373Z,6524
2017-11-11T12:49:14.574Z,7416
2017-11-11T12:50:25.351Z,7640
2017-11-11T12:51:35.887Z,6660
2017-11-11T12:52:46.559Z,4604
2017-11-11T12:53:57.089Z,2376
2017-11-11T12:55:07.651Z,2244
2017-11-11T12:56:17.945Z,2096
2017-11-11T12:57:28.168Z,2276
2017-11-11T12:58:38.738Z,1800
2017-11-11T12:59:48.853Z,1436
2017-11-11T13:00:59.475Z,872
2017-11-11T13:02:09.807Z,688
2017-11-11T13:03:20.515Z,616
2017-11-11T13:04:30.766Z,736
2017-11-11T13:05:40.549Z,888
2017-11-11T13:06:50.835Z,660
2017-11-11T13:08:01.419Z,620
2017-11-11T13:09:11.642Z,644
2017-11-11T13:10:21.864Z,888
2017-11-11T13:11:32.679Z,848
2017-11-11T13:12:43.554Z,856
2017-11-11T13:13:54.095Z,964
2017-11-11T13:15:04.738Z,884
2017-11-11T13:16:14.693Z,956
2017-11-11T13:17:24.971Z,1136
2017-11-11T13:18:35.273Z,1180
2017-11-11T13:19:45.526Z,1208
2017-11-11T13:20:55.793Z,1256
2017-11-11T13:22:06.380Z,1172
2017-11-11T13:23:16.636Z,1208
2017-11-11T13:24:26.508Z,952
2017-11-11T13:25:37.067Z,808
2017-11-11T13:26:47.656Z,808
2017-11-11T13:27:58.214Z,764
2017-11-11T13:29:08.515Z,896
2017-11-11T13:30:19.034Z,752
2017-11-11T13:31:29.576Z,960
2017-11-11T13:32:40.094Z,1144
2017-11-11T13:33:50.667Z,1204
2017-11-11T13:35:00.912Z,1360
2017-11-11T13:36:10.377Z,1904
2017-11-11T13:37:21.128Z,3276
2017-11-11T13:38:31.984Z,4920
2017-11-11T13:39:42.562Z,5928
2017-11-11T13:40:52.918Z,6624
2017-11-11T13:42:03.576Z,7240
2017-11-11T13:43:13.873Z,7204
2017-11-11T13:44:24.443Z,6388
2017-11-11T13:45:34.988Z,5832
2017-11-11T13:46:45.517Z,5512
2017-11-11T13:47:55.718Z,5088
2017-11-11T13:49:06.495Z,4664
2017-11-11T13:50:16.580Z,4184
2017-11-11T13:51:27.148Z,3732
2017-11-11T13:52:37.906Z,3276
2017-11-11T13:53:48.355Z,2608
2017-11-11T13:54:58.503Z,1948
2017-11-11T13:56:08.098Z,1540
2017-11-11T13:57:18.626Z,1440
2017-11-11T13:58:28.516Z,1584
2017-11-11T13:59:38.717Z,1788
2017-11-11T14:00:49.263Z,1640
2017-11-11T14:01:59.863Z,1504
2017-11-11T14:03:10.311Z,1244
2017-11-11T14:04:20.896Z,1200
2017-11-11T14:05:31.222Z,1248
2017-11-11T14:06:41.422Z,1456
2017-11-11T14:07:52.000Z,1532
2017-11-11T14:09:02.525Z,1404
2017-11-11T14:10:12.904Z,1176
2017-11-11T14:11:23.145Z,900
2017-11-11T14:12:33.820Z,856
2017-11-11T14:13:43.721Z,772
2017-11-11T14:14:54.242Z,576
2017-11-11T14:16:04.401Z,412
2017-11-11T14:17:14.638Z,340
2017-11-11T14:18:24.746Z,380
2017-11-11T14:19:35.002Z,416
2017-11-11T14:20:45.256Z,424
2017-11-11T14:21:55.886Z,424
2017-11-11T14:23:06.077Z,548
2017-11-11T14:24:16.313Z,580
2017-11-11T14:25:26.876Z,340
2017-11-11T14:26:37.085Z,352
2017-11-11T14:27:47.608Z,372
2017-11-11T14:28:58.131Z,412
2017-11-11T14:30:08.371Z,352
2017-11-11T14:31:18.616Z,300
2017-11-11T14:32:30.138Z,288
2017-11-11T14:33:40.767Z,340
2017-11-11T14:34:51.385Z,440
2017-11-11T14:36:01.945Z,456
2017-11-11T14:37:12.564Z,452
2017-11-11T14:38:22.802Z,476
2017-11-11T14:39:33.324Z,644
2017-11-11T14:40:44.010Z,752
2017-11-11T14:41:54.614Z,780
2017-11-11T14:43:05.197Z,548
2017-11-11T14:44:15.317Z,508
2017-11-11T14:45:26.028Z,624
2017-11-11T14:46:36.644Z,480
2017-11-11T14:47:47.211Z,440
2017-11-11T14:48:57.929Z,448
2017-11-11T14:50:08.084Z,508
2017-11-11T14:51:18.648Z,716
2017-11-11T14:52:29.318Z,668
2017-11-11T14:53:39.876Z,644
2017-11-11T14:54:50.510Z,672
2017-11-11T14:56:00.742Z,536
2017-11-11T14:57:10.643Z,448
2017-11-11T14:58:21.212Z,460
2017-11-11T14:59:31.187Z,344
2017-11-11T15:00:41.393Z,260
2017-11-11T15:01:51.614Z,268
2017-11-11T15:03:02.230Z,280
2017-11-11T15:04:12.901Z,216
2017-11-11T15:05:23.500Z,188
2017-11-11T15:06:33.303Z,156
2017-11-11T15:07:43.978Z,112
2017-11-11T15:08:54.507Z,88
2017-11-11T15:10:04.659Z,76
2017-11-11T15:11:15.257Z,68
2017-11-11T15:12:25.489Z,68
2017-11-11T15:13:35.402Z,72
2017-11-11T15:14:45.299Z,60
2017-11-11T15:15:55.394Z,40
2017-11-11T15:17:06.000Z,36
2017-11-11T15:18:16.572Z,28
2017-11-11T15:19:27.145Z,28
2017-11-11T15:20:37.772Z,48
2017-11-11T15:21:47.569Z,32
2017-11-11T15:22:58.276Z,24
2017-11-11T15:24:08.822Z,36
2017-11-11T15:25:19.704Z,64
2017-11-11T15:26:30.255Z,40
2017-11-11T15:27:40.180Z,28
2017-11-11T15:28:50.374Z,40
2017-11-11T15:30:00.309Z,40
2017-11-11T15:31:10.524Z,44
2017-11-11T15:32:21.164Z,36
2017-11-11T15:33:31.743Z,32
2017-11-11T15:34:42.332Z,28
2017-11-11T15:35:52.924Z,20
2017-11-11T15:37:03.111Z,20
2017-11-11T15:38:13.912Z,12
2017-11-11T15:39:24.158Z,12
2017-11-11T15:40:34.414Z,8
2017-11-11T15:41:44.637Z,8
2017-11-11T15:42:54.875Z,8
2017-11-11T15:44:05.413Z,8
2017-11-11T15:45:16.082Z,4
2017-11-11T15:46:26.400Z,8
2017-11-11T15:47:37.030Z,4
2017-11-11T15:48:47.586Z,4
2017-11-11T15:49:58.414Z,0
2017-11-11T15:51:08.646Z,4
2017-11-11T15:52:18.938Z,0
2017-11-11T15:53:29.480Z,0
2017-11-11T15:54:40.035Z,0
2017-11-11T15:55:50.630Z,0
2017-11-11T15:57:01.299Z,0
2017-11-11T15:58:11.842Z,0
2017-11-11T15:59:22.043Z,0
2017-11-11T16:00:32.589Z,0
2017-11-11T16:01:43.181Z,0
2017-11-11T16:02:53.452Z,0
2017-11-11T16:04:03.580Z,0
2017-11-11T16:05:14.195Z,0
2017-11-11T16:06:24.421Z,0
2017-11-11T16:07:35.000Z,0
2017-11-11T16:08:45.568Z,0
2017-11-11T16:09:55.357Z,0
2017-11-11T16:11:05.600Z,0
2017-11-11T16:12:16.205Z,0
2017-11-11T16:13:26.755Z,0
2017-11-11T16:14:37.298Z,0
2017-11-11T16:15:47.425Z,0
2017-11-11T16:16:58.322Z,0
2017-11-11T16:18:08.971Z,0
2017-11-11T16:19:19.178Z,0
2017-11-11T16:20:29.786Z,0